sensor_id;sensor_type;location;lat;lon;timestamp;pressure;altitude;pressure_sealevel;temperature;humidity
50166;BME280;36071;48.140;11.516;2022-11-04T00:01:47;94590.0;;;11.9;68.1
50166;BME280;36071;48.140;11.516;2022-11-04T00:06:47;94620.0;;;11.9;67.8
50166;BME280;36071;48.140;11.516;2022-11-04T00:11:47;94620.0;;;11.8;67.5
50166;BME280;36071;48.140;11.516;2022-11-04T00:16:47;94620.0;;;11.7;67.4
50166;BME280;36071;48.140;11.516;2022-11-04T00:21:47;94630.0;;;11.8;67.2
50166;BME280;36071;48.140;11.516;2022-11-04T00:26:47;94640.0;;;11.7;67.4
50166;BME280;36071;48.140;11.516;2022-11-04T00:31:47;94650.0;;;11.7;67.5
50166;BME280;36071;48.140;11.516;2022-11-04T00:36:47;94650.0;;;11.7;67.7
50166;BME280;36071;48.140;11.516;2022-11-04T00:41:47;94650.0;;;11.6;67.5
50166;BME280;36071;48.140;11.516;2022-11-04T00:46:47;94650.0;;;11.4;67.8
50166;BME280;36071;48.140;11.516;2022-11-04T00:51:47;94670.0;;;11.5;68.0
50166;BME280;36071;48.140;11.516;2022-11-04T00:56:47;94680.0;;;11.4;68.4
50166;BME280;36071;48.140;11.516;2022-11-04T01:01:47;94670.0;;;11.3;69.4
50166;BME280;36071;48.140;11.516;2022-11-04T01:06:47;94680.0;;;11.1;71.0
50166;BME280;36071;48.140;11.516;2022-11-04T01:11:47;94710.0;;;10.9;73.0
50166;BME280;36071;48.140;11.516;2022-11-04T01:16:47;94700.0;;;10.8;74.1
50166;BME280;36071;48.140;11.516;2022-11-04T01:21:49;94710.0;;;10.8;74.3
50166;BME280;36071;48.140;11.516;2022-11-04T01:26:47;94710.0;;;10.6;75.3
50166;BME280;36071;48.140;11.516;2022-11-04T01:31:47;94710.0;;;10.6;75.4
50166;BME280;36071;48.140;11.516;2022-11-04T01:36:47;94700.0;;;10.4;76.1
50166;BME280;36071;48.140;11.516;2022-11-04T01:41:47;94690.0;;;10.3;76.1
50166;BME280;36071;48.140;11.516;2022-11-04T01:46:47;94690.0;;;10.4;76.1
50166;BME280;36071;48.140;11.516;2022-11-04T01:51:47;94680.0;;;10.3;75.3
50166;BME280;36071;48.140;11.516;2022-11-04T01:56:47;94670.0;;;10.3;75.1
50166;BME280;36071;48.140;11.516;2022-11-04T02:01:47;94660.0;;;10.4;74.7
50166;BME280;36071;48.140;11.516;2022-11-04T02:06:47;94660.0;;;10.5;74.3
50166;BME280;36071;48.140;11.516;2022-11-04T02:11:47;94650.0;;;10.3;73.6
50166;BME280;36071;48.140;11.516;2022-11-04T02:16:47;94650.0;;;10.4;72.8
50166;BME280;36071;48.140;11.516;2022-11-04T02:21:52;94670.0;;;10.5;72.4
50166;BME280;36071;48.140;11.516;2022-11-04T02:27:09;94670.0;;;10.5;71.5
50166;BME280;36071;48.140;11.516;2022-11-04T02:31:49;94670.0;;;10.4;71.6
50166;BME280;36071;48.140;11.516;2022-11-04T02:36:48;94680.0;;;10.3;71.5
50166;BME280;36071;48.140;11.516;2022-11-04T02:41:48;94680.0;;;10.3;71.3
50166;BME280;36071;48.140;11.516;2022-11-04T02:46:48;94670.0;;;10.3;71.5
50166;BME280;36071;48.140;11.516;2022-11-04T02:51:47;94670.0;;;10.2;71.2
50166;BME280;36071;48.140;11.516;2022-11-04T02:56:47;94670.0;;;10.3;70.9
50166;BME280;36071;48.140;11.516;2022-11-04T03:01:47;94680.0;;;10.2;71.0
50166;BME280;36071;48.140;11.516;2022-11-04T03:06:47;94670.0;;;10.2;70.2
50166;BME280;36071;48.140;11.516;2022-11-04T03:11:48;94660.0;;;10.3;69.8
50166;BME280;36071;48.140;11.516;2022-11-04T03:16:47;94660.0;;;10.3;69.1
50166;BME280;36071;48.140;11.516;2022-11-04T03:21:48;94660.0;;;10.2;69.6
50166;BME280;36071;48.140;11.516;2022-11-04T03:26:48;94670.0;;;10.3;69.2
50166;BME280;36071;48.140;11.516;2022-11-04T03:31:47;94670.0;;;10.3;69.0
50166;BME280;36071;48.140;11.516;2022-11-04T03:36:47;94670.0;;;10.3;69.2
50166;BME280;36071;48.140;11.516;2022-11-04T03:41:48;94670.0;;;10.3;68.5
50166;BME280;36071;48.140;11.516;2022-11-04T03:46:47;94660.0;;;10.2;68.7
50166;BME280;36071;48.140;11.516;2022-11-04T03:51:47;94670.0;;;10.1;68.8
50166;BME280;36071;48.140;11.516;2022-11-04T03:56:53;94670.0;;;9.9;68.3
50166;BME280;36071;48.140;11.516;2022-11-04T04:01:47;94650.0;;;10.0;68.2
50166;BME280;36071;48.140;11.516;2022-11-04T04:06:47;94650.0;;;10.1;68.2
50166;BME280;36071;48.140;11.516;2022-11-04T04:11:50;94640.0;;;10.1;68.1
50166;BME280;36071;48.140;11.516;2022-11-04T04:16:47;94630.0;;;10.0;67.6
50166;BME280;36071;48.140;11.516;2022-11-04T04:21:48;94650.0;;;10.0;67.6
50166;BME280;36071;48.140;11.516;2022-11-04T04:26:47;94650.0;;;10.0;67.3
50166;BME280;36071;48.140;11.516;2022-11-04T04:31:48;94650.0;;;10.0;66.9
50166;BME280;36071;48.140;11.516;2022-11-04T04:36:48;94650.0;;;10.0;67.0
50166;BME280;36071;48.140;11.516;2022-11-04T04:41:47;94640.0;;;10.0;66.7
50166;BME280;36071;48.140;11.516;2022-11-04T04:46:48;94650.0;;;9.8;66.4
50166;BME280;36071;48.140;11.516;2022-11-04T04:51:47;94660.0;;;10.0;65.8
50166;BME280;36071;48.140;11.516;2022-11-04T04:56:47;94670.0;;;9.9;66.1
50166;BME280;36071;48.140;11.516;2022-11-04T05:01:47;94670.0;;;9.9;65.6
50166;BME280;36071;48.140;11.516;2022-11-04T05:06:47;94670.0;;;10.0;65.4
50166;BME280;36071;48.140;11.516;2022-11-04T05:11:47;94670.0;;;10.0;65.8
50166;BME280;36071;48.140;11.516;2022-11-04T05:16:47;94680.0;;;9.9;66.2
50166;BME280;36071;48.140;11.516;2022-11-04T05:21:47;94670.0;;;9.9;65.9
50166;BME280;36071;48.140;11.516;2022-11-04T05:26:47;94660.0;;;9.9;65.8
50166;BME280;36071;48.140;11.516;2022-11-04T05:31:47;94660.0;;;9.8;66.4
50166;BME280;36071;48.140;11.516;2022-11-04T05:36:47;94650.0;;;9.8;66.7
50166;BME280;36071;48.140;11.516;2022-11-04T05:41:47;94670.0;;;9.7;67.1
50166;BME280;36071;48.140;11.516;2022-11-04T05:46:47;94680.0;;;9.6;67.4
50166;BME280;36071;48.140;11.516;2022-11-04T05:51:47;94680.0;;;9.6;67.3
50166;BME280;36071;48.140;11.516;2022-11-04T05:56:47;94670.0;;;9.6;68.0
50166;BME280;36071;48.140;11.516;2022-11-04T06:01:47;94670.0;;;9.5;69.9
50166;BME280;36071;48.140;11.516;2022-11-04T06:06:47;94690.0;;;9.4;72.8
50166;BME280;36071;48.140;11.516;2022-11-04T06:11:47;94680.0;;;9.2;75.1
50166;BME280;36071;48.140;11.516;2022-11-04T06:16:47;94690.0;;;9.1;76.3
50166;BME280;36071;48.140;11.516;2022-11-04T06:21:47;94700.0;;;8.9;76.6
50166;BME280;36071;48.140;11.516;2022-11-04T06:26:47;94690.0;;;9.1;77.4
50166;BME280;36071;48.140;11.516;2022-11-04T06:31:47;94690.0;;;9.0;78.8
50166;BME280;36071;48.140;11.516;2022-11-04T06:36:47;94700.0;;;9.1;79.2
50166;BME280;36071;48.140;11.516;2022-11-04T06:41:47;94720.0;;;9.1;78.7
50166;BME280;36071;48.140;11.516;2022-11-04T06:46:47;94720.0;;;9.2;79.7
50166;BME280;36071;48.140;11.516;2022-11-04T06:51:47;94720.0;;;9.1;79.9
50166;BME280;36071;48.140;11.516;2022-11-04T06:56:47;94720.0;;;9.2;80.0
50166;BME280;36071;48.140;11.516;2022-11-04T07:01:48;94690.0;;;9.0;81.2
50166;BME280;36071;48.140;11.516;2022-11-04T07:06:47;94700.0;;;9.0;81.9
50166;BME280;36071;48.140;11.516;2022-11-04T07:11:47;94690.0;;;9.0;81.8
50166;BME280;36071;48.140;11.516;2022-11-04T07:16:48;94720.0;;;8.9;83.0
50166;BME280;36071;48.140;11.516;2022-11-04T07:21:47;94720.0;;;8.8;83.7
50166;BME280;36071;48.140;11.516;2022-11-04T07:26:47;94730.0;;;9.0;82.3
50166;BME280;36071;48.140;11.516;2022-11-04T07:31:47;94750.0;;;8.9;82.9
50166;BME280;36071;48.140;11.516;2022-11-04T07:36:47;94760.0;;;8.9;82.0
50166;BME280;36071;48.140;11.516;2022-11-04T07:41:47;94740.0;;;8.8;83.0
50166;BME280;36071;48.140;11.516;2022-11-04T07:46:47;94750.0;;;8.7;84.0
50166;BME280;36071;48.140;11.516;2022-11-04T07:51:47;94760.0;;;8.8;82.1
50166;BME280;36071;48.140;11.516;2022-11-04T07:56:47;94780.0;;;8.9;81.6
50166;BME280;36071;48.140;11.516;2022-11-04T08:01:47;94780.0;;;8.9;80.4
50166;BME280;36071;48.140;11.516;2022-11-04T08:06:47;94770.0;;;9.1;78.1
50166;BME280;36071;48.140;11.516;2022-11-04T08:11:47;94750.0;;;9.0;79.3
50166;BME280;36071;48.140;11.516;2022-11-04T08:16:48;94740.0;;;8.8;79.7
50166;BME280;36071;48.140;11.516;2022-11-04T08:21:47;94750.0;;;8.7;83.5
50166;BME280;36071;48.140;11.516;2022-11-04T08:26:47;94730.0;;;8.8;80.8
50166;BME280;36071;48.140;11.516;2022-11-04T08:31:47;94720.0;;;8.8;81.5
50166;BME280;36071;48.140;11.516;2022-11-04T08:36:47;94710.0;;;8.6;82.5
50166;BME280;36071;48.140;11.516;2022-11-04T08:41:47;94720.0;;;8.7;80.9
50166;BME280;36071;48.140;11.516;2022-11-04T08:46:47;94710.0;;;8.4;82.3
50166;BME280;36071;48.140;11.516;2022-11-04T08:51:47;94690.0;;;8.5;81.4
50166;BME280;36071;48.140;11.516;2022-11-04T08:56:47;94680.0;;;8.5;82.3
50166;BME280;36071;48.140;11.516;2022-11-04T09:01:47;94680.0;;;8.5;82.0
50166;BME280;36071;48.140;11.516;2022-11-04T09:06:47;94690.0;;;8.6;82.1
50166;BME280;36071;48.140;11.516;2022-11-04T09:11:47;94680.0;;;8.6;82.9
50166;BME280;36071;48.140;11.516;2022-11-04T09:16:47;94670.0;;;8.5;83.6
50166;BME280;36071;48.140;11.516;2022-11-04T09:21:47;94680.0;;;8.6;82.1
50166;BME280;36071;48.140;11.516;2022-11-04T09:26:47;94680.0;;;8.7;83.5
50166;BME280;36071;48.140;11.516;2022-11-04T09:31:47;94680.0;;;8.7;83.8
50166;BME280;36071;48.140;11.516;2022-11-04T09:41:50;94690.0;;;8.7;83.9
50166;BME280;36071;48.140;11.516;2022-11-04T09:46:47;94720.0;;;8.6;85.0
50166;BME280;36071;48.140;11.516;2022-11-04T09:51:47;94710.0;;;8.5;83.6
50166;BME280;36071;48.140;11.516;2022-11-04T09:56:47;94710.0;;;8.4;82.6
50166;BME280;36071;48.140;11.516;2022-11-04T10:01:51;94690.0;;;8.5;83.8
50166;BME280;36071;48.140;11.516;2022-11-04T10:06:52;94670.0;;;8.6;85.3
50166;BME280;36071;48.140;11.516;2022-11-04T10:11:49;94660.0;;;8.6;84.3
50166;BME280;36071;48.140;11.516;2022-11-04T10:16:50;94660.0;;;8.7;82.6
50166;BME280;36071;48.140;11.516;2022-11-04T10:21:48;94680.0;;;8.8;82.0
50166;BME280;36071;48.140;11.516;2022-11-04T10:26:48;94670.0;;;8.9;80.5
50166;BME280;36071;48.140;11.516;2022-11-04T10:31:47;94680.0;;;9.0;79.4
50166;BME280;36071;48.140;11.516;2022-11-04T10:36:47;94650.0;;;8.9;80.7
50166;BME280;36071;48.140;11.516;2022-11-04T10:41:47;94630.0;;;8.8;80.0
50166;BME280;36071;48.140;11.516;2022-11-04T10:46:49;94620.0;;;8.9;79.7
50166;BME280;36071;48.140;11.516;2022-11-04T10:51:47;94620.0;;;8.9;81.7
50166;BME280;36071;48.140;11.516;2022-11-04T10:56:48;94630.0;;;8.9;80.6
50166;BME280;36071;48.140;11.516;2022-11-04T11:01:47;94630.0;;;9.0;79.1
50166;BME280;36071;48.140;11.516;2022-11-04T11:06:47;94630.0;;;8.9;79.1
50166;BME280;36071;48.140;11.516;2022-11-04T11:11:47;94640.0;;;8.9;80.4
50166;BME280;36071;48.140;11.516;2022-11-04T11:16:47;94650.0;;;8.8;79.9
50166;BME280;36071;48.140;11.516;2022-11-04T11:21:47;94640.0;;;8.9;79.6
50166;BME280;36071;48.140;11.516;2022-11-04T11:26:48;94640.0;;;8.9;81.3
50166;BME280;36071;48.140;11.516;2022-11-04T11:31:47;94660.0;;;8.9;79.7
50166;BME280;36071;48.140;11.516;2022-11-04T11:36:47;94670.0;;;8.9;80.4
50166;BME280;36071;48.140;11.516;2022-11-04T11:41:48;94670.0;;;8.9;81.4
50166;BME280;36071;48.140;11.516;2022-11-04T11:46:49;94680.0;;;8.9;81.9
50166;BME280;36071;48.140;11.516;2022-11-04T11:51:47;94670.0;;;9.0;80.1
50166;BME280;36071;48.140;11.516;2022-11-04T11:56:47;94650.0;;;8.8;80.9
50166;BME280;36071;48.140;11.516;2022-11-04T12:01:48;94670.0;;;9.0;79.1
50166;BME280;36071;48.140;11.516;2022-11-04T12:06:49;94680.0;;;9.0;79.6
50166;BME280;36071;48.140;11.516;2022-11-04T12:11:51;94670.0;;;9.0;79.8
50166;BME280;36071;48.140;11.516;2022-11-04T12:16:48;94670.0;;;8.9;80.6
50166;BME280;36071;48.140;11.516;2022-11-04T12:21:48;94660.0;;;8.9;80.0
50166;BME280;36071;48.140;11.516;2022-11-04T12:26:49;94650.0;;;8.8;82.4
50166;BME280;36071;48.140;11.516;2022-11-04T12:31:49;94640.0;;;8.9;79.5
50166;BME280;36071;48.140;11.516;2022-11-04T12:36:52;94610.0;;;9.0;77.6
50166;BME280;36071;48.140;11.516;2022-11-04T12:41:49;94630.0;;;9.0;77.3
50166;BME280;36071;48.140;11.516;2022-11-04T12:46:49;94660.0;;;9.1;78.0
50166;BME280;36071;48.140;11.516;2022-11-04T12:51:48;94690.0;;;9.0;78.2
50166;BME280;36071;48.140;11.516;2022-11-04T12:56:47;94700.0;;;8.9;78.7
50166;BME280;36071;48.140;11.516;2022-11-04T13:01:47;94710.0;;;8.8;78.7
50166;BME280;36071;48.140;11.516;2022-11-04T13:06:48;94700.0;;;8.7;77.6
50166;BME280;36071;48.140;11.516;2022-11-04T13:11:49;94700.0;;;8.5;78.9
50166;BME280;36071;48.140;11.516;2022-11-04T13:16:47;94710.0;;;8.6;79.0
50166;BME280;36071;48.140;11.516;2022-11-04T13:21:47;94710.0;;;8.6;78.8
50166;BME280;36071;48.140;11.516;2022-11-04T13:26:47;94700.0;;;8.6;79.1
50166;BME280;36071;48.140;11.516;2022-11-04T13:31:49;94710.0;;;8.6;79.4
50166;BME280;36071;48.140;11.516;2022-11-04T13:36:47;94710.0;;;8.7;80.1
50166;BME280;36071;48.140;11.516;2022-11-04T13:42:01;94720.0;;;8.6;80.9
50166;BME280;36071;48.140;11.516;2022-11-04T13:46:47;94710.0;;;8.6;80.9
50166;BME280;36071;48.140;11.516;2022-11-04T13:51:59;94720.0;;;8.5;82.7
50166;BME280;36071;48.140;11.516;2022-11-04T13:56:47;94720.0;;;8.6;82.1
50166;BME280;36071;48.140;11.516;2022-11-04T14:01:47;94720.0;;;8.6;80.8
50166;BME280;36071;48.140;11.516;2022-11-04T14:06:48;94720.0;;;8.6;81.5
50166;BME280;36071;48.140;11.516;2022-11-04T14:12:15;94730.0;;;8.6;81.3
50166;BME280;36071;48.140;11.516;2022-11-04T14:16:47;94730.0;;;8.6;79.7
50166;BME280;36071;48.140;11.516;2022-11-04T14:22:03;94720.0;;;8.7;79.4
50166;BME280;36071;48.140;11.516;2022-11-04T14:26:47;94720.0;;;8.6;79.7
50166;BME280;36071;48.140;11.516;2022-11-04T14:31:47;94720.0;;;8.6;80.1
50166;BME280;36071;48.140;11.516;2022-11-04T14:36:47;94730.0;;;8.7;78.0
50166;BME280;36071;48.140;11.516;2022-11-04T14:41:48;94720.0;;;8.7;77.8
50166;BME280;36071;48.140;11.516;2022-11-04T14:46:47;94720.0;;;8.7;77.9
50166;BME280;36071;48.140;11.516;2022-11-04T14:51:47;94710.0;;;8.5;77.4
50166;BME280;36071;48.140;11.516;2022-11-04T14:56:47;94710.0;;;8.5;76.2
50166;BME280;36071;48.140;11.516;2022-11-04T15:01:47;94710.0;;;8.5;75.9
50166;BME280;36071;48.140;11.516;2022-11-04T15:06:52;94720.0;;;8.4;74.2
50166;BME280;36071;48.140;11.516;2022-11-04T15:11:47;94720.0;;;8.4;74.1
50166;BME280;36071;48.140;11.516;2022-11-04T15:16:47;94730.0;;;8.4;74.7
50166;BME280;36071;48.140;11.516;2022-11-04T15:21:47;94730.0;;;8.4;74.8
50166;BME280;36071;48.140;11.516;2022-11-04T15:26:48;94730.0;;;8.3;75.0
50166;BME280;36071;48.140;11.516;2022-11-04T15:31:51;94730.0;;;8.3;74.5
50166;BME280;36071;48.140;11.516;2022-11-04T15:36:47;94730.0;;;8.3;74.3
50166;BME280;36071;48.140;11.516;2022-11-04T15:41:47;94740.0;;;8.2;75.2
50166;BME280;36071;48.140;11.516;2022-11-04T15:46:48;94740.0;;;8.2;74.6
50166;BME280;36071;48.140;11.516;2022-11-04T15:51:47;94740.0;;;8.2;74.8
50166;BME280;36071;48.140;11.516;2022-11-04T15:56:48;94750.0;;;8.2;74.9
50166;BME280;36071;48.140;11.516;2022-11-04T16:01:48;94740.0;;;8.2;75.2
50166;BME280;36071;48.140;11.516;2022-11-04T16:07:00;94740.0;;;8.1;75.8
50166;BME280;36071;48.140;11.516;2022-11-04T16:12:03;94740.0;;;8.2;75.0
50166;BME280;36071;48.140;11.516;2022-11-04T16:16:49;94740.0;;;8.1;73.7
50166;BME280;36071;48.140;11.516;2022-11-04T16:21:47;94730.0;;;8.1;73.3
50166;BME280;36071;48.140;11.516;2022-11-04T16:26:47;94730.0;;;7.9;74.1
50166;BME280;36071;48.140;11.516;2022-11-04T16:32:06;94740.0;;;7.9;73.9
50166;BME280;36071;48.140;11.516;2022-11-04T16:36:47;94750.0;;;7.9;73.5
50166;BME280;36071;48.140;11.516;2022-11-04T16:41:47;94760.0;;;7.8;73.9
50166;BME280;36071;48.140;11.516;2022-11-04T16:46:47;94760.0;;;7.8;74.0
50166;BME280;36071;48.140;11.516;2022-11-04T16:51:48;94770.0;;;7.6;75.2
50166;BME280;36071;48.140;11.516;2022-11-04T16:56:47;94780.0;;;7.6;74.9
50166;BME280;36071;48.140;11.516;2022-11-04T17:01:47;94780.0;;;7.5;75.3
50166;BME280;36071;48.140;11.516;2022-11-04T17:06:47;94790.0;;;7.5;75.6
50166;BME280;36071;48.140;11.516;2022-11-04T17:11:47;94790.0;;;7.3;75.7
50166;BME280;36071;48.140;11.516;2022-11-04T17:16:47;94790.0;;;7.3;76.1
50166;BME280;36071;48.140;11.516;2022-11-04T17:21:47;94790.0;;;7.3;75.1
50166;BME280;36071;48.140;11.516;2022-11-04T17:26:47;94800.0;;;7.2;75.0
50166;BME280;36071;48.140;11.516;2022-11-04T17:31:47;94800.0;;;7.3;75.8
50166;BME280;36071;48.140;11.516;2022-11-04T17:36:47;94800.0;;;7.2;76.4
50166;BME280;36071;48.140;11.516;2022-11-04T17:41:47;94810.0;;;7.2;75.5
50166;BME280;36071;48.140;11.516;2022-11-04T17:46:47;94810.0;;;7.2;75.2
50166;BME280;36071;48.140;11.516;2022-11-04T17:51:47;94820.0;;;7.2;75.4
50166;BME280;36071;48.140;11.516;2022-11-04T17:56:47;94820.0;;;7.3;74.5
50166;BME280;36071;48.140;11.516;2022-11-04T18:01:47;94820.0;;;7.3;75.0
50166;BME280;36071;48.140;11.516;2022-11-04T18:06:47;94830.0;;;7.3;74.6
50166;BME280;36071;48.140;11.516;2022-11-04T18:11:47;94830.0;;;7.3;74.9
50166;BME280;36071;48.140;11.516;2022-11-04T18:16:47;94840.0;;;7.1;75.9
50166;BME280;36071;48.140;11.516;2022-11-04T18:21:47;94860.0;;;7.3;76.1
50166;BME280;36071;48.140;11.516;2022-11-04T18:26:47;94860.0;;;7.2;75.6
50166;BME280;36071;48.140;11.516;2022-11-04T18:31:47;94870.0;;;7.3;73.8
50166;BME280;36071;48.140;11.516;2022-11-04T18:36:47;94880.0;;;7.2;75.7
50166;BME280;36071;48.140;11.516;2022-11-04T18:41:47;94880.0;;;7.2;75.4
50166;BME280;36071;48.140;11.516;2022-11-04T18:46:47;94880.0;;;7.2;76.2
50166;BME280;36071;48.140;11.516;2022-11-04T18:51:47;94880.0;;;7.0;76.6
50166;BME280;36071;48.140;11.516;2022-11-04T18:56:47;94880.0;;;7.2;76.5
50166;BME280;36071;48.140;11.516;2022-11-04T19:01:47;94900.0;;;7.1;79.6
50166;BME280;36071;48.140;11.516;2022-11-04T19:06:47;94900.0;;;7.1;77.4
50166;BME280;36071;48.140;11.516;2022-11-04T19:11:47;94910.0;;;7.1;76.1
50166;BME280;36071;48.140;11.516;2022-11-04T19:16:47;94910.0;;;7.0;77.0
50166;BME280;36071;48.140;11.516;2022-11-04T19:21:47;94920.0;;;7.1;76.6
50166;BME280;36071;48.140;11.516;2022-11-04T19:26:47;94940.0;;;7.1;76.5
50166;BME280;36071;48.140;11.516;2022-11-04T19:31:47;94940.0;;;7.2;76.1
50166;BME280;36071;48.140;11.516;2022-11-04T19:36:47;94950.0;;;7.1;76.2
50166;BME280;36071;48.140;11.516;2022-11-04T19:41:47;94960.0;;;7.1;75.5
50166;BME280;36071;48.140;11.516;2022-11-04T19:46:47;94960.0;;;6.8;77.7
50166;BME280;36071;48.140;11.516;2022-11-04T19:51:47;94970.0;;;6.8;77.8
50166;BME280;36071;48.140;11.516;2022-11-04T19:56:47;94980.0;;;6.9;76.8
50166;BME280;36071;48.140;11.516;2022-11-04T20:01:47;94970.0;;;6.8;77.2
50166;BME280;36071;48.140;11.516;2022-11-04T20:06:47;94990.0;;;6.7;78.2
50166;BME280;36071;48.140;11.516;2022-11-04T20:11:47;95000.0;;;6.8;77.7
50166;BME280;36071;48.140;11.516;2022-11-04T20:16:47;95010.0;;;6.7;78.3
50166;BME280;36071;48.140;11.516;2022-11-04T20:21:47;95000.0;;;6.6;78.3
50166;BME280;36071;48.140;11.516;2022-11-04T20:26:47;95010.0;;;6.6;77.6
50166;BME280;36071;48.140;11.516;2022-11-04T20:31:47;95010.0;;;6.6;77.7
50166;BME280;36071;48.140;11.516;2022-11-04T20:36:47;95020.0;;;6.6;77.4
50166;BME280;36071;48.140;11.516;2022-11-04T20:41:47;95020.0;;;6.5;77.3
50166;BME280;36071;48.140;11.516;2022-11-04T20:46:47;95040.0;;;6.4;77.5
50166;BME280;36071;48.140;11.516;2022-11-04T20:51:47;95050.0;;;6.5;77.5
50166;BME280;36071;48.140;11.516;2022-11-04T20:56:47;95050.0;;;6.4;78.1
50166;BME280;36071;48.140;11.516;2022-11-04T21:01:47;95050.0;;;6.4;78.2
50166;BME280;36071;48.140;11.516;2022-11-04T21:06:47;95060.0;;;6.4;78.1
50166;BME280;36071;48.140;11.516;2022-11-04T21:11:47;95060.0;;;6.3;77.7
50166;BME280;36071;48.140;11.516;2022-11-04T21:16:47;95070.0;;;6.4;77.3
50166;BME280;36071;48.140;11.516;2022-11-04T21:21:47;95070.0;;;6.4;76.5
50166;BME280;36071;48.140;11.516;2022-11-04T21:26:47;95070.0;;;6.3;76.8
50166;BME280;36071;48.140;11.516;2022-11-04T21:31:47;95070.0;;;6.3;76.7
50166;BME280;36071;48.140;11.516;2022-11-04T21:36:48;95080.0;;;6.3;76.9
50166;BME280;36071;48.140;11.516;2022-11-04T21:41:47;95080.0;;;6.0;78.2
50166;BME280;36071;48.140;11.516;2022-11-04T21:46:48;95080.0;;;6.0;77.3
50166;BME280;36071;48.140;11.516;2022-11-04T21:51:47;95090.0;;;5.9;78.8
50166;BME280;36071;48.140;11.516;2022-11-04T21:56:47;95080.0;;;6.0;78.1
50166;BME280;36071;48.140;11.516;2022-11-04T22:01:47;95080.0;;;6.0;78.5
50166;BME280;36071;48.140;11.516;2022-11-04T22:06:47;95080.0;;;5.8;79.1
50166;BME280;36071;48.140;11.516;2022-11-04T22:11:47;95080.0;;;5.8;79.0
50166;BME280;36071;48.140;11.516;2022-11-04T22:16:47;95090.0;;;5.8;79.3
50166;BME280;36071;48.140;11.516;2022-11-04T22:21:47;95090.0;;;5.9;79.6
50166;BME280;36071;48.140;11.516;2022-11-04T22:26:48;95080.0;;;5.9;81.1
50166;BME280;36071;48.140;11.516;2022-11-04T22:31:47;95080.0;;;5.9;80.7
50166;BME280;36071;48.140;11.516;2022-11-04T22:36:47;95100.0;;;6.0;80.3
50166;BME280;36071;48.140;11.516;2022-11-04T22:41:47;95100.0;;;6.1;79.0
50166;BME280;36071;48.140;11.516;2022-11-04T22:46:47;95100.0;;;6.0;80.0
50166;BME280;36071;48.140;11.516;2022-11-04T22:51:48;95100.0;;;6.0;79.8
50166;BME280;36071;48.140;11.516;2022-11-04T22:56:47;95120.0;;;6.1;80.0
50166;BME280;36071;48.140;11.516;2022-11-04T23:01:47;95120.0;;;6.1;80.2
50166;BME280;36071;48.140;11.516;2022-11-04T23:06:47;95130.0;;;6.2;79.7
50166;BME280;36071;48.140;11.516;2022-11-04T23:11:47;95130.0;;;6.2;79.4
50166;BME280;36071;48.140;11.516;2022-11-04T23:16:49;95120.0;;;6.3;79.5
50166;BME280;36071;48.140;11.516;2022-11-04T23:21:47;95130.0;;;6.1;80.5
50166;BME280;36071;48.140;11.516;2022-11-04T23:26:48;95150.0;;;6.1;80.5
50166;BME280;36071;48.140;11.516;2022-11-04T23:31:48;95140.0;;;6.2;80.1
50166;BME280;36071;48.140;11.516;2022-11-04T23:36:48;95140.0;;;6.1;80.5
50166;BME280;36071;48.140;11.516;2022-11-04T23:41:48;95140.0;;;6.1;81.1
50166;BME280;36071;48.140;11.516;2022-11-04T23:46:47;95140.0;;;6.2;80.6
50166;BME280;36071;48.140;11.516;2022-11-04T23:51:47;95140.0;;;6.2;81.2
50166;BME280;36071;48.140;11.516;2022-11-04T23:56:47;95150.0;;;6.1;81.4
